Time;durP1;ratioP1;P1;durP2;ratioP2;P2;SDS_P1;SDS_P2;PMS_P1;PMS_P2;Temp;Humidity;BMP_temperature;BMP_pressure;BME280_temperature;BME280_humidity;BME280_pressure;Samples;Min_cycle;Max_cycle;Signal;HPM_P1;HPM_P2
2022/09/16 00:01:57;;;;;;;4.20;2.90;;;;;;;13.59;98.96;97031.91;6255778;28;20284;-40
2022/09/16 00:04:59;;;;;;;4.60;3.43;;;;;;;13.55;98.69;97028.75;6267762;28;20223;-40
2022/09/16 00:08:01;;;;;;;3.30;3.00;;;;;;;13.53;99.09;97029.91;6276400;28;20229;-41
2022/09/16 00:11:03;;;;;;;4.87;2.90;;;;;;;13.49;98.89;97033.84;6280561;28;20709;-41
2022/09/16 00:14:05;;;;;;;3.50;3.20;;;;;;;13.44;99.15;97033.50;6281006;28;20789;-40
2022/09/16 00:17:07;;;;;;;2.97;2.73;;;;;;;13.42;99.70;97038.94;6279908;28;20222;-40
2022/09/16 00:20:09;;;;;;;6.63;3.50;;;;;;;13.39;100.00;97039.25;6278893;28;20250;-40
2022/09/16 00:23:11;;;;;;;4.40;3.40;;;;;;;13.41;100.00;97031.97;6279106;28;20227;-40
2022/09/16 00:26:13;;;;;;;3.90;3.60;;;;;;;13.41;100.00;97037.28;6279804;28;20223;-40
2022/09/16 00:29:16;;;;;;;4.97;4.47;;;;;;;13.40;100.00;97025.00;6280560;28;20230;-41
2022/09/16 00:32:18;;;;;;;5.10;4.60;;;;;;;13.38;100.00;97018.19;6279618;28;20721;-41
2022/09/16 00:35:21;;;;;;;4.23;3.87;;;;;;;13.36;100.00;97036.09;6279472;28;20606;-41
2022/09/16 00:38:23;;;;;;;4.67;4.27;;;;;;;13.33;100.00;97033.75;6259496;28;20239;-41
2022/09/16 00:41:32;;;;;;;6.07;3.80;;;;;;;13.34;99.85;97043.38;6268304;28;20228;-41
2022/09/16 00:44:59;;;;;;;5.00;4.23;;;;;;;13.25;98.91;97030.06;6279540;28;20230;-41
2022/09/16 00:48:05;;;;;;;4.43;4.03;;;;;;;13.26;98.76;97028.25;6278442;28;20242;-41
2022/09/16 00:51:10;;;;;;;4.57;4.10;;;;;;;13.24;98.23;97033.72;6271096;28;20245;-41
2022/09/16 00:54:13;;;;;;;4.43;3.80;;;;;;;13.19;98.35;97030.69;6279653;28;20215;-41
2022/09/16 00:57:15;;;;;;;4.17;3.77;;;;;;;13.12;98.65;97023.47;6280153;28;20214;-41
2022/09/16 01:04:52;;;;;;;4.97;4.13;;;;;;;12.93;99.17;97027.16;6249347;28;20223;-41
2022/09/16 01:07:54;;;;;;;4.90;4.17;;;;;;;12.92;99.49;97028.13;6254492;28;20223;-41
2022/09/16 01:10:56;;;;;;;4.27;3.90;;;;;;;12.90;99.41;97020.34;6253917;28;20227;-41
2022/09/16 01:14:51;;;;;;;4.30;3.90;;;;;;;12.86;99.44;97029.59;6255153;28;20325;-40
2022/09/16 01:17:34;;;;;;;4.73;3.80;;;;;;;12.81;99.59;97023.06;6229776;28;20315;-40
2022/09/16 01:20:55;;;;;;;4.63;4.23;;;;;;;12.77;99.68;97027.88;6252854;28;20721;-41
2022/09/16 01:24:34;;;;;;;4.57;3.73;;;;;;;12.69;99.83;97030.41;6253932;28;20257;-40
2022/09/16 01:27:57;;;;;;;4.63;4.23;;;;;;;12.65;99.74;97026.44;6253710;28;20235;-40
2022/09/16 01:31:18;;;;;;;6.03;4.53;;;;;;;12.59;99.44;97011.13;6254486;28;20699;-41
2022/09/16 01:34:46;;;;;;;4.10;3.70;;;;;;;12.55;99.83;97015.09;6254242;28;20231;-41
2022/09/16 01:38:29;;;;;;;4.47;3.77;;;;;;;12.48;100.00;97017.47;6253567;28;20234;-41
2022/09/16 01:41:56;;;;;;;6.80;4.70;;;;;;;12.44;99.73;97018.78;6229575;28;20606;-41
2022/09/16 01:45:12;;;;;;;7.03;4.43;;;;;;;12.44;99.56;97026.72;6253688;28;20237;-41
2022/09/16 01:48:29;;;;;;;5.60;4.20;;;;;;;12.46;99.52;97019.47;6258290;28;20235;-41
2022/09/16 01:51:47;;;;;;;7.07;5.10;;;;;;;12.48;99.04;97024.59;6253794;28;20238;-40
2022/09/16 01:54:55;;;;;;;7.37;4.70;;;;;;;12.54;99.07;96994.88;6254082;28;20314;-40
2022/09/16 01:58:06;;;;;;;7.20;4.80;;;;;;;12.57;98.77;96997.25;6254117;28;20585;-40
2022/09/16 02:01:45;;;;;;;7.47;4.50;;;;;;;12.60;98.02;96991.63;6254242;28;20237;-41
2022/09/16 02:04:53;;;;;;;7.47;4.83;;;;;;;12.66;97.82;96990.19;6239842;28;20366;-40
2022/09/16 02:08:01;;;;;;;4.93;4.43;;;;;;;12.69;97.48;96990.69;6239008;28;20237;-40
2022/09/16 02:11:07;;;;;;;8.73;4.50;;;;;;;12.77;96.37;96974.91;6250073;28;20326;-40
2022/09/16 02:14:24;;;;;;;7.03;4.03;;;;;;;12.82;96.10;96972.63;6250167;28;20227;-40
2022/09/16 02:17:31;;;;;;;5.00;3.60;;;;;;;12.79;96.87;96990.63;6250478;28;20706;-40
2022/09/16 02:20:38;;;;;;;5.97;3.80;;;;;;;12.74;97.26;96979.66;6250070;28;20238;-40
2022/09/16 02:23:46;;;;;;;6.53;4.13;;;;;;;12.76;97.44;96975.06;6254927;28;20223;-41
2022/09/16 02:26:53;;;;;;;6.00;4.43;;;;;;;12.77;97.30;96974.91;6255819;28;20231;-41
2022/09/16 02:30:02;;;;;;;5.33;4.13;;;;;;;12.78;97.56;96965.13;6255159;28;20413;-40
2022/09/16 02:33:08;;;;;;;5.13;4.30;;;;;;;12.74;97.64;96980.50;6254076;28;20592;-41
2022/09/16 02:36:15;;;;;;;7.13;5.40;;;;;;;12.73;97.91;96975.34;6256914;28;20230;-41
2022/09/16 02:39:23;;;;;;;5.60;3.97;;;;;;;12.80;97.24;96985.16;6258054;28;20215;-40
2022/09/16 02:42:25;;;;;;;3.90;3.60;;;;;;;12.82;97.34;96979.72;6257324;28;20318;-40
2022/09/16 02:45:47;;;;;;;6.23;4.10;;;;;;;12.83;96.76;96987.53;6257863;28;20231;-41
2022/09/16 02:49:27;;;;;;;5.80;4.57;;;;;;;12.85;97.24;96988.19;6258169;28;20277;-41
2022/09/16 02:52:45;;;;;;;5.37;3.97;;;;;;;12.86;96.82;96978.44;6246135;28;20254;-40
2022/09/16 02:55:57;;;;;;;5.13;4.07;;;;;;;12.87;96.92;96977.47;6258440;28;20228;-40
2022/09/16 02:59:01;;;;;;;5.57;4.23;;;;;;;12.87;96.90;96990.69;6257737;28;20384;-42
2022/09/16 03:02:04;;;;;;;4.17;3.77;;;;;;;12.87;97.15;96975.66;6258841;28;20255;-40
2022/09/16 03:05:06;;;;;;;5.27;3.97;;;;;;;12.88;97.03;96973.78;6272133;28;20693;-40
2022/09/16 03:08:08;;;;;;;4.40;4.00;;;;;;;12.84;97.04;96972.47;6282761;28;20599;-40
2022/09/16 03:11:27;;;;;;;4.37;3.97;;;;;;;12.82;97.42;96982.38;6282590;28;20233;-41
2022/09/16 03:14:49;;;;;;;5.10;3.60;;;;;;;12.79;97.54;96986.16;6282010;28;20976;-40
2022/09/16 03:18:07;;;;;;;4.50;3.00;;;;;;;12.79;97.98;96991.44;6281856;28;20725;-41
2022/09/16 03:21:31;;;;;;;3.93;3.63;;;;;;;12.77;97.97;96995.25;6264624;28;20306;-41
2022/09/16 03:24:57;;;;;;;5.47;4.80;;;;;;;12.75;97.86;96997.22;6278445;28;20230;-40
2022/09/16 03:28:15;;;;;;;4.63;3.83;;;;;;;12.77;97.67;96997.91;6281563;28;20718;-41
2022/09/16 03:31:27;;;;;;;6.77;4.83;;;;;;;12.80;97.64;96997.56;6281371;28;20288;-41
2022/09/16 03:34:36;;;;;;;6.20;4.40;;;;;;;12.83;97.38;96995.47;6263482;28;20234;-40
2022/09/16 03:37:40;;;;;;;7.20;4.27;;;;;;;12.86;97.02;97003.09;6281212;28;20744;-40
2022/09/16 03:40:42;;;;;;;6.50;5.20;;;;;;;12.86;95.41;97004.91;6274022;28;20600;-40
2022/09/16 03:43:55;;;;;;;5.67;3.80;;;;;;;12.92;95.25;97005.13;6280554;28;20709;-41
2022/09/16 03:47:08;;;;;;;7.50;4.27;;;;;;;12.94;94.46;97005.81;6276847;28;20237;-40
2022/09/16 03:50:10;;;;;;;4.97;4.00;;;;;;;12.97;94.35;97006.50;6278079;28;20313;-40
2022/09/16 03:53:12;;;;;;;5.13;4.37;;;;;;;12.98;93.69;97005.50;6280775;28;20598;-41
2022/09/16 03:56:14;;;;;;;5.87;4.27;;;;;;;13.00;93.44;97004.34;6280876;28;20234;-40
2022/09/16 03:59:16;;;;;;;5.87;3.77;;;;;;;13.03;93.18;97000.56;6280372;28;20234;-40
2022/09/16 04:02:18;;;;;;;3.30;3.00;;;;;;;13.01;93.58;96991.94;6274529;28;20605;-40
2022/09/16 04:05:20;;;;;;;5.17;3.50;;;;;;;12.95;93.49;97009.28;6256189;28;20701;-41
2022/09/16 04:08:23;;;;;;;5.63;3.17;;;;;;;12.83;94.18;97003.41;6255976;28;20227;-41
2022/09/16 04:11:28;;;;;;;3.97;3.30;;;;;;;12.75;94.38;97002.50;6254260;28;20702;-41
2022/09/16 04:14:30;;;;;;;3.57;3.20;;;;;;;12.67;94.57;97013.03;6256783;28;20233;-40
2022/09/16 04:17:32;;;;;;;5.20;3.67;;;;;;;12.62;95.11;97008.19;6256615;28;20661;-40
2022/09/16 04:20:38;;;;;;;4.23;3.37;;;;;;;12.60;95.43;97007.50;6255034;28;20694;-40
2022/09/16 04:23:43;;;;;;;4.93;4.17;;;;;;;12.58;96.18;97012.13;6254880;28;20661;-41
2022/09/16 04:26:46;;;;;;;8.77;5.20;;;;;;;12.56;96.03;97001.69;6255714;28;20233;-41
2022/09/16 04:29:48;;;;;;;4.23;3.47;;;;;;;12.57;95.81;97008.66;6253628;28;20230;-41
2022/09/16 04:32:55;;;;;;;5.13;3.87;;;;;;;12.61;96.14;97000.41;6255736;28;20231;-40
2022/09/16 04:36:09;;;;;;;7.57;3.90;;;;;;;12.55;96.75;97004.50;6271115;28;20230;-41
2022/09/16 04:39:11;;;;;;;5.90;4.00;;;;;;;12.54;96.49;97000.19;6254369;28;20686;-40
2022/09/16 04:42:13;;;;;;;7.03;3.80;;;;;;;12.49;96.96;96997.97;6254145;28;20726;-41
2022/09/16 04:45:15;;;;;;;7.50;4.13;;;;;;;12.46;97.37;96987.72;6255830;28;20298;-41
2022/09/16 04:48:18;;;;;;;6.03;3.77;;;;;;;12.48;97.53;96982.25;6254787;28;20207;-41
2022/09/16 04:51:21;;;;;;;4.23;3.83;;;;;;;12.45;97.61;96979.91;6254664;28;20239;-40
2022/09/16 04:54:23;;;;;;;6.00;4.93;;;;;;;12.48;98.01;96983.06;6255539;28;20226;-41
2022/09/16 04:57:28;;;;;;;6.13;5.07;;;;;;;12.56;97.37;96985.00;6255160;28;20693;-41
2022/09/16 05:00:30;;;;;;;5.47;4.00;;;;;;;12.66;96.90;96972.50;6258827;28;20599;-41
2022/09/16 05:03:32;;;;;;;9.07;4.50;;;;;;;12.74;96.27;96982.31;6262292;28;20729;-42
2022/09/16 05:06:37;;;;;;;5.80;4.37;;;;;;;12.81;95.34;96975.41;6253399;28;20244;-41
2022/09/16 05:09:39;;;;;;;5.00;4.50;;;;;;;12.85;95.26;96977.59;6254343;28;20373;-40
2022/09/16 05:12:42;;;;;;;7.43;5.37;;;;;;;12.89;94.29;96970.16;6254978;28;20242;-42
2022/09/16 05:15:50;;;;;;;7.93;6.17;;;;;;;12.91;93.74;96973.50;6253670;28;20582;-41
2022/09/16 05:18:55;;;;;;;8.50;6.27;;;;;;;12.96;93.55;96968.59;6256017;28;20313;-40
2022/09/16 05:21:57;;;;;;;6.50;4.87;;;;;;;13.01;92.88;96968.94;6253756;28;20231;-40
2022/09/16 05:24:59;;;;;;;5.73;4.27;;;;;;;13.05;92.76;96969.47;6254071;28;20577;-40
2022/09/16 05:28:01;;;;;;;8.57;4.67;;;;;;;13.08;92.54;96969.13;6255331;28;20234;-40
2022/09/16 05:31:16;;;;;;;7.47;5.37;;;;;;;13.08;91.45;96972.59;6253081;28;20237;-40
2022/09/16 05:34:20;;;;;;;6.07;4.77;;;;;;;13.05;92.01;96965.00;6259085;28;20318;-40
2022/09/16 05:37:22;;;;;;;7.73;4.30;;;;;;;13.06;92.16;96961.38;6253398;28;20400;-40
2022/09/16 05:40:26;;;;;;;5.73;4.97;;;;;;;13.05;92.49;96957.06;6252697;28;20234;-40
2022/09/16 05:43:28;;;;;;;5.90;4.60;;;;;;;13.09;92.39;96963.69;6254612;28;20640;-41
2022/09/16 05:46:30;;;;;;;6.20;4.40;;;;;;;13.12;92.73;96965.19;6253940;28;20671;-41
2022/09/16 05:49:32;;;;;;;6.67;4.63;;;;;;;13.15;92.60;96967.56;6254819;28;20706;-41
2022/09/16 05:52:35;;;;;;;7.67;4.03;;;;;;;13.19;92.38;96972.38;6253999;28;20245;-41
2022/09/16 05:55:37;;;;;;;5.40;4.67;;;;;;;13.26;91.99;96964.66;6254858;28;20235;-41
2022/09/16 05:58:39;;;;;;;8.10;4.87;;;;;;;13.32;91.58;96971.97;6258347;28;20227;-41
2022/09/16 06:01:47;;;;;;;6.90;4.20;;;;;;;13.39;91.42;96980.94;6260279;28;20241;-41
2022/09/16 06:04:50;;;;;;;5.00;4.50;;;;;;;13.43;90.49;96968.22;6270732;28;20227;-41
2022/09/16 06:07:55;;;;;;;5.47;3.90;;;;;;;13.48;91.00;96976.50;6259042;28;20227;-40
2022/09/16 06:11:07;;;;;;;4.97;4.23;;;;;;;13.50;90.69;96971.88;6257342;28;20773;-41
2022/09/16 06:14:10;;;;;;;5.23;4.53;;;;;;;13.52;91.41;96986.66;6256787;28;20312;-43
2022/09/16 06:17:12;;;;;;;5.13;3.60;;;;;;;13.52;90.83;96978.69;6258680;28;20828;-41
2022/09/16 06:20:14;;;;;;;4.93;4.27;;;;;;;13.49;90.42;96983.47;6258190;28;20230;-41
2022/09/16 06:23:18;;;;;;;8.10;4.47;;;;;;;13.47;90.72;96982.81;6257974;28;20231;-41
2022/09/16 06:26:23;;;;;;;7.73;4.20;;;;;;;13.49;90.19;96978.16;6258932;28;20230;-41
2022/09/16 06:29:25;;;;;;;5.17;3.83;;;;;;;13.50;90.16;96974.53;6258567;28;20223;-41
2022/09/16 06:32:30;;;;;;;4.10;3.70;;;;;;;13.53;90.09;96987.47;6257910;28;20605;-41
2022/09/16 06:35:34;;;;;;;6.37;4.83;;;;;;;13.57;90.07;96994.16;6257753;28;20702;-41
2022/09/16 06:38:36;;;;;;;7.10;4.60;;;;;;;13.63;88.71;96990.84;6258292;28;20694;-40
2022/09/16 06:41:38;;;;;;;7.03;5.20;;;;;;;13.78;88.28;96997.19;6258923;28;20246;-41
2022/09/16 06:44:40;;;;;;;6.83;4.97;;;;;;;13.88;87.69;96989.09;6278790;28;20290;-41
2022/09/16 06:47:42;;;;;;;13.23;5.17;;;;;;;13.90;86.05;96995.91;6241861;28;20226;-42
2022/09/16 06:50:44;;;;;;;5.60;4.70;;;;;;;13.93;86.28;96994.78;6265884;28;20284;-41
2022/09/16 06:53:46;;;;;;;8.27;5.27;;;;;;;13.92;87.15;96988.63;6247212;28;20227;-40
2022/09/16 06:56:48;;;;;;;6.00;5.27;;;;;;;13.89;86.42;96993.41;6280857;28;20261;-41
2022/09/16 06:59:51;;;;;;;5.83;4.73;;;;;;;13.90;86.02;96987.97;6258272;28;20239;-41
2022/09/16 07:02:53;;;;;;;6.00;4.13;;;;;;;13.95;85.76;97003.41;6264594;28;20233;-41
2022/09/16 07:06:01;;;;;;;9.03;4.33;;;;;;;13.97;85.12;97010.19;6243042;28;20231;-41
2022/09/16 07:09:04;;;;;;;5.30;4.30;;;;;;;14.01;84.67;97006.25;6257235;28;20227;-41
2022/09/16 07:12:07;;;;;;;4.07;3.57;;;;;;;14.08;84.47;97019.69;6276782;28;20241;-41
2022/09/16 07:15:09;;;;;;;5.90;3.73;;;;;;;14.14;83.62;97018.22;6265375;28;20697;-40
2022/09/16 07:18:11;;;;;;;5.80;3.37;;;;;;;14.21;82.87;97027.19;6282255;28;20418;-41
2022/09/16 07:21:18;;;;;;;6.87;3.47;;;;;;;14.30;83.16;97019.09;6276136;28;20620;-41
2022/09/16 07:24:20;;;;;;;4.27;3.10;;;;;;;14.37;83.81;97017.44;6282084;28;20215;-41
2022/09/16 07:27:22;;;;;;;3.43;2.97;;;;;;;14.40;83.84;97014.50;6279722;28;20299;-41
2022/09/16 07:30:24;;;;;;;3.07;2.77;;;;;;;14.44;83.58;97015.00;6280995;28;20226;-41
2022/09/16 07:33:26;;;;;;;4.37;2.40;;;;;;;14.47;83.20;97020.00;6281065;28;20241;-40
2022/09/16 07:36:32;;;;;;;7.17;2.87;;;;;;;14.52;83.62;97028.28;6280834;28;20236;-40
2022/09/16 07:39:34;;;;;;;5.03;2.80;;;;;;;14.55;82.33;97033.28;6268391;28;20322;-41
2022/09/16 07:42:36;;;;;;;3.40;2.50;;;;;;;14.57;81.73;97026.00;6273138;28;20720;-42
2022/09/16 07:45:38;;;;;;;3.00;2.27;;;;;;;14.62;80.31;97033.44;6280881;28;20595;-40
2022/09/16 07:48:40;;;;;;;4.03;2.73;;;;;;;14.68;79.40;97027.47;6281474;28;20589;-41
2022/09/16 07:51:43;;;;;;;3.17;2.67;;;;;;;14.80;79.60;97025.31;6265735;28;20254;-42
2022/09/16 07:54:45;;;;;;;3.97;2.47;;;;;;;14.83;79.17;97036.47;6280710;28;20961;-41
2022/09/16 07:57:47;;;;;;;5.23;2.50;;;;;;;14.88;79.39;97031.47;6280183;28;20602;-42
2022/09/16 08:00:49;;;;;;;3.43;2.20;;;;;;;14.94;79.66;97043.28;6280984;28;20214;-41
2022/09/16 08:03:52;;;;;;;3.33;1.90;;;;;;;14.95;77.87;97044.94;6277826;28;20604;-41
2022/09/16 08:06:54;;;;;;;2.43;2.17;;;;;;;15.06;78.17;97039.31;6273893;28;20305;-42
2022/09/16 08:09:56;;;;;;;2.80;2.20;;;;;;;15.21;77.90;97042.09;6280997;28;20576;-41
2022/09/16 08:12:58;;;;;;;3.17;2.63;;;;;;;15.33;77.21;97040.75;6268181;28;20227;-41
2022/09/16 08:16:05;;;;;;;3.07;2.23;;;;;;;15.39;77.24;97040.06;6263011;28;20222;-41
2022/09/16 08:19:08;;;;;;;3.10;2.20;;;;;;;15.46;76.22;97038.41;6279837;28;20214;-40
2022/09/16 08:22:10;;;;;;;2.63;2.17;;;;;;;15.63;76.05;97025.94;6236193;28;20326;-41
2022/09/16 08:25:12;;;;;;;5.40;2.30;;;;;;;15.80;74.51;97024.88;6279748;28;20779;-41
2022/09/16 08:28:16;;;;;;;6.20;2.40;;;;;;;16.00;73.35;97026.13;6279761;28;20702;-42
2022/09/16 08:31:18;;;;;;;3.53;2.77;;;;;;;16.22;72.23;97024.53;6279727;28;20245;-41
2022/09/16 08:34:21;;;;;;;4.77;2.43;;;;;;;16.31;71.70;97020.81;6279219;28;20234;-41
2022/09/16 08:37:23;;;;;;;3.50;2.10;;;;;;;16.46;71.64;97013.75;6268668;28;20260;-41
2022/09/16 08:40:35;;;;;;;2.47;2.27;;;;;;;16.63;72.36;97011.84;6265653;28;20237;-41
2022/09/16 08:44:00;;;;;;;2.40;2.03;;;;;;;16.71;70.81;97006.44;6279113;28;20713;-41
2022/09/16 08:47:41;;;;;;;4.97;2.17;;;;;;;16.89;70.64;97016.78;6279190;28;20448;-41
2022/09/16 08:50:47;;;;;;;3.20;2.57;;;;;;;17.04;70.78;97033.69;6170701;28;20229;-42
2022/09/16 08:54:01;;;;;;;3.27;2.87;;;;;;;17.14;68.84;97028.09;6177940;28;20233;-41
2022/09/16 08:57:08;;;;;;;3.37;2.33;;;;;;;17.14;66.65;97015.59;6164935;28;20229;-41
2022/09/16 09:00:14;;;;;;;2.73;2.30;;;;;;;17.33;66.07;97019.59;6178340;28;20300;-40
2022/09/16 09:03:46;;;;;;;2.50;2.30;;;;;;;17.40;65.61;97025.00;6177020;28;20261;-42
2022/09/16 09:06:52;;;;;;;3.73;2.43;;;;;;;17.21;66.16;97026.34;6062862;29;20232;-40
2022/09/16 09:10:23;;;;;;;2.47;2.27;;;;;;;17.10;65.88;97022.28;6107374;29;20766;-42
2022/09/16 09:13:46;;;;;;;2.40;2.20;;;;;;;16.94;66.06;97022.44;6106391;29;20787;-43
2022/09/16 09:17:03;;;;;;;2.67;2.20;;;;;;;16.99;67.39;97022.72;6099766;29;20692;-41
2022/09/16 09:20:27;;;;;;;2.63;2.00;;;;;;;17.06;68.30;97023.69;6081855;29;20232;-43
2022/09/16 09:24:00;;;;;;;4.33;2.40;;;;;;;17.05;68.30;97024.69;6080687;29;20733;-41
2022/09/16 09:27:37;;;;;;;2.27;2.07;;;;;;;17.05;69.21;97019.34;6115367;28;20686;-40
2022/09/16 09:30:49;;;;;;;3.17;2.37;;;;;;;17.02;69.52;97010.88;6104703;29;20258;-42
2022/09/16 09:34:16;;;;;;;4.13;2.60;;;;;;;17.09;69.33;97009.13;6084078;29;20728;-43
2022/09/16 09:37:56;;;;;;;5.07;2.50;;;;;;;17.12;69.93;97006.13;6082913;29;20248;-41
2022/09/16 09:41:11;;;;;;;4.17;2.50;;;;;;;17.14;68.39;97004.09;6081451;29;20224;-43
2022/09/16 09:44:13;;;;;;;2.53;2.33;;;;;;;17.07;68.70;96995.97;6154181;28;20233;-41
2022/09/16 09:47:20;;;;;;;4.10;2.80;;;;;;;17.07;68.97;97005.84;6176940;28;20741;-41
2022/09/16 09:50:28;;;;;;;3.10;2.70;;;;;;;17.20;68.36;97009.53;6165955;28;20257;-43
2022/09/16 09:53:48;;;;;;;2.80;2.30;;;;;;;17.31;68.13;97014.44;6152224;28;20325;-41
2022/09/16 09:57:12;;;;;;;3.57;2.80;;;;;;;17.45;66.62;97001.31;6153054;28;20658;-41
2022/09/16 10:00:17;;;;;;;5.77;2.83;;;;;;;17.62;66.22;97003.63;6153022;28;20425;-41
2022/09/16 10:03:20;;;;;;;3.30;2.67;;;;;;;17.63;66.54;96997.28;6152105;28;20241;-40
2022/09/16 10:06:27;;;;;;;8.90;4.23;;;;;;;17.70;66.32;97005.38;6214785;28;20226;-42
2022/09/16 10:09:30;;;;;;;7.07;3.33;;;;;;;17.67;65.71;97001.22;6252691;28;20222;-41
2022/09/16 10:12:35;;;;;;;3.27;2.97;;;;;;;17.43;66.28;97003.31;6252780;28;20309;-41
2022/09/16 10:15:37;;;;;;;4.90;2.77;;;;;;;17.60;66.45;96997.63;6251579;28;20318;-40
2022/09/16 10:18:40;;;;;;;4.60;2.77;;;;;;;17.68;65.58;96997.56;6252645;28;20302;-41
2022/09/16 10:21:46;;;;;;;2.90;2.70;;;;;;;18.00;65.67;96996.34;6252848;28;20219;-42
2022/09/16 10:24:55;;;;;;;2.80;2.60;;;;;;;18.16;65.76;96998.00;6254248;28;20565;-40
2022/09/16 10:28:05;;;;;;;2.57;2.37;;;;;;;18.31;65.15;96998.78;6252542;28;20254;-41
2022/09/16 10:31:07;;;;;;;2.93;2.70;;;;;;;18.35;63.00;96989.38;6253070;28;20650;-41
2022/09/16 10:34:33;;;;;;;3.37;2.50;;;;;;;18.59;64.17;96990.03;6227782;28;20220;-42
2022/09/16 10:37:36;;;;;;;5.73;2.70;;;;;;;18.46;64.29;96985.38;6219010;28;20308;-43
2022/09/16 10:40:49;;;;;;;3.17;2.60;;;;;;;18.17;64.33;96994.28;6226587;28;20286;-41
2022/09/16 10:43:58;;;;;;;4.17;3.30;;;;;;;17.94;64.66;96989.09;6232707;28;20338;-42
2022/09/16 10:47:08;;;;;;;6.00;3.00;;;;;;;17.68;64.76;96991.38;6230687;28;20680;-41
2022/09/16 10:50:17;;;;;;;3.03;2.83;;;;;;;17.59;65.71;96987.13;6243066;28;20806;-41
2022/09/16 10:53:31;;;;;;;3.17;2.87;;;;;;;17.58;66.60;96991.63;6257203;28;20352;-41
2022/09/16 10:56:49;;;;;;;6.87;3.10;;;;;;;17.55;66.55;96989.34;6256556;28;20227;-44
2022/09/16 11:00:14;;;;;;;3.40;2.80;;;;;;;17.54;67.62;96992.19;6257945;28;20318;-41
2022/09/16 11:03:55;;;;;;;3.00;2.57;;;;;;;17.53;67.55;96983.38;6257117;28;20608;-42
2022/09/16 11:07:20;;;;;;;3.20;2.87;;;;;;;17.42;67.54;96986.47;6256920;28;20612;-41
2022/09/16 11:10:42;;;;;;;5.67;2.97;;;;;;;17.27;67.76;96989.13;6257198;28;20227;-41
2022/09/16 11:14:21;;;;;;;4.27;3.27;;;;;;;17.00;67.10;96971.06;6256137;28;20231;-42
2022/09/16 11:17:35;;;;;;;3.20;2.90;;;;;;;16.94;68.14;96983.28;6256189;28;20582;-43
2022/09/16 11:21:26;;;;;;;4.53;3.40;;;;;;;16.77;66.09;96981.75;6256250;28;20231;-41
2022/09/16 11:24:45;;;;;;;5.93;3.13;;;;;;;16.73;67.17;96985.78;6205455;28;20261;-41
2022/09/16 11:28:22;;;;;;;4.60;3.03;;;;;;;16.92;66.92;96974.63;6231992;28;20273;-41
2022/09/16 11:31:33;;;;;;;3.17;2.53;;;;;;;17.00;66.47;96967.56;6231314;28;20231;-42
2022/09/16 11:34:57;;;;;;;3.03;2.70;;;;;;;17.09;66.52;96974.47;6233097;28;20243;-41
2022/09/16 11:38:23;;;;;;;3.57;2.60;;;;;;;17.13;66.25;96975.78;6230058;28;20236;-41
2022/09/16 11:41:39;;;;;;;2.97;2.50;;;;;;;17.18;66.81;96962.72;6231311;28;20827;-42
2022/09/16 11:45:08;;;;;;;3.80;2.30;;;;;;;17.25;67.15;96956.50;6232294;28;20754;-42
2022/09/16 11:48:48;;;;;;;2.53;2.33;;;;;;;17.32;67.42;96940.56;6255245;28;20226;-42
2022/09/16 11:52:05;;;;;;;2.47;2.20;;;;;;;17.44;68.05;96951.63;6233960;28;20232;-42
2022/09/16 11:55:45;;;;;;;4.17;2.17;;;;;;;17.57;68.29;96939.28;6231025;28;20231;-42
2022/09/16 11:59:00;;;;;;;5.73;2.80;;;;;;;17.64;67.92;96937.56;6231975;28;20239;-42
2022/09/16 12:02:20;;;;;;;2.60;2.40;;;;;;;17.67;67.16;96931.84;6230101;28;20322;-42
2022/09/16 12:05:44;;;;;;;3.23;2.20;;;;;;;17.79;68.00;96937.53;6230720;28;20235;-43
2022/09/16 12:08:57;;;;;;;4.53;2.50;;;;;;;17.79;67.35;96934.88;6230526;28;20307;-43
2022/09/16 12:12:10;;;;;;;2.30;2.10;;;;;;;17.61;65.19;96932.56;6230382;28;20325;-44
2022/09/16 12:15:25;;;;;;;2.57;2.13;;;;;;;17.61;65.70;96927.22;6230388;28;20263;-42
2022/09/16 12:18:41;;;;;;;4.93;2.37;;;;;;;17.60;65.26;96925.56;6230838;28;20231;-43
2022/09/16 12:22:09;;;;;;;3.03;2.27;;;;;;;17.51;64.64;96928.53;6230674;28;20230;-42
2022/09/16 12:25:44;;;;;;;4.33;2.30;;;;;;;17.70;64.33;96923.47;6230535;28;20227;-42
2022/09/16 12:29:16;;;;;;;2.67;2.23;;;;;;;18.08;64.01;96920.63;6230307;28;20239;-44
2022/09/16 12:32:21;;;;;;;2.70;2.50;;;;;;;18.15;62.12;96918.06;6221974;28;20315;-42
2022/09/16 12:35:32;;;;;;;3.13;2.37;;;;;;;18.34;61.48;96928.13;6253374;28;20832;-44
2022/09/16 12:38:36;;;;;;;2.30;2.00;;;;;;;18.05;63.07;96929.03;6254268;28;20234;-41
2022/09/16 12:41:54;;;;;;;6.07;2.57;;;;;;;17.99;63.40;96919.91;6254933;28;20318;-42
2022/09/16 12:45:32;;;;;;;5.10;2.10;;;;;;;17.92;61.61;96907.50;6254425;28;20254;-42
2022/09/16 12:48:53;;;;;;;3.83;2.77;;;;;;;17.95;62.47;96905.31;6254188;28;20380;-43
2022/09/16 12:52:17;;;;;;;6.87;3.27;;;;;;;17.88;62.18;96904.38;6254575;28;20293;-43
2022/09/16 12:55:32;;;;;;;2.47;2.07;;;;;;;17.82;62.44;96901.66;6253503;28;20389;-42
2022/09/16 12:59:05;;;;;;;3.07;2.53;;;;;;;17.83;61.49;96892.63;6236132;28;20242;-43
2022/09/16 13:02:16;;;;;;;4.50;2.90;;;;;;;17.86;62.25;96900.28;6253348;28;21044;-41
2022/09/16 13:05:21;;;;;;;4.43;2.40;;;;;;;17.93;62.80;96895.81;6254138;28;20239;-43
2022/09/16 13:08:29;;;;;;;2.60;2.40;;;;;;;17.95;63.35;96896.47;6257161;28;20227;-41
2022/09/16 13:11:32;;;;;;;4.00;2.60;;;;;;;18.06;63.21;96891.47;6254055;28;20706;-43
2022/09/16 13:14:58;;;;;;;2.40;2.20;;;;;;;18.09;61.86;96890.25;6253185;28;20308;-43
2022/09/16 13:18:45;;;;;;;2.50;2.30;;;;;;;18.08;62.43;96880.56;6252972;28;20227;-43
2022/09/16 13:21:53;;;;;;;2.93;2.40;;;;;;;18.02;61.91;96884.00;6206625;28;20228;-43
2022/09/16 13:25:22;;;;;;;2.20;2.00;;;;;;;17.99;61.19;96887.06;6253732;28;20782;-43
2022/09/16 13:28:37;;;;;;;2.67;2.47;;;;;;;17.89;62.89;96894.53;6252702;28;20226;-42
2022/09/16 13:31:47;;;;;;;4.13;2.30;;;;;;;17.82;63.42;96897.13;6253422;28;20254;-43
2022/09/16 13:35:00;;;;;;;5.50;2.37;;;;;;;17.75;63.32;96895.41;6252926;28;20606;-44
2022/09/16 13:38:17;;;;;;;2.53;2.30;;;;;;;17.73;64.03;96884.91;6252010;28;20875;-42
2022/09/16 13:41:37;;;;;;;3.67;2.50;;;;;;;17.81;64.35;96870.63;6253114;28;20326;-41
2022/09/16 13:44:41;;;;;;;4.13;3.40;;;;;;;17.89;64.36;96868.66;6256053;28;20691;-43
2022/09/16 13:47:48;;;;;;;3.27;2.30;;;;;;;17.89;63.19;96852.66;6253604;28;20966;-43
2022/09/16 13:50:57;;;;;;;3.57;2.83;;;;;;;17.83;62.40;96861.44;6238918;28;20228;-44
2022/09/16 13:54:03;;;;;;;4.37;1.90;;;;;;;17.86;62.20;96860.22;6228196;28;20598;-42
2022/09/16 13:57:44;;;;;;;2.83;2.23;;;;;;;17.92;62.36;96854.13;6228730;28;20233;-43
2022/09/16 14:00:53;;;;;;;5.90;2.50;;;;;;;17.85;62.82;96847.91;6227427;28;20227;-45
2022/09/16 14:04:28;;;;;;;3.40;2.40;;;;;;;17.63;62.60;96858.53;6227896;28;20596;-44
2022/09/16 14:07:55;;;;;;;3.40;2.60;;;;;;;17.60;63.29;96855.38;6229316;28;20246;-42
2022/09/16 14:11:10;;;;;;;2.43;2.23;;;;;;;17.60;64.06;96853.53;6228684;28;20460;-43
2022/09/16 14:14:23;;;;;;;3.37;2.50;;;;;;;17.68;65.05;96858.78;6228156;28;20240;-43
2022/09/16 14:17:48;;;;;;;4.30;2.37;;;;;;;17.67;64.95;96862.47;6232391;28;20254;-42
2022/09/16 14:20:58;;;;;;;3.00;2.47;;;;;;;17.73;64.83;96849.41;6233554;28;20228;-46
2022/09/16 14:24:34;;;;;;;3.37;1.90;;;;;;;17.68;62.96;96855.28;6232240;28;20326;-44
2022/09/16 14:27:38;;;;;;;2.83;2.63;;;;;;;17.75;63.77;96842.03;6157444;28;20233;-43
2022/09/16 14:31:00;;;;;;;3.57;2.80;;;;;;;17.94;62.88;96844.91;6156981;28;20793;-41
2022/09/16 14:34:07;;;;;;;4.03;2.30;;;;;;;18.08;63.40;96838.69;6180353;28;20721;-41
2022/09/16 14:37:16;;;;;;;3.20;2.50;;;;;;;18.15;62.33;96837.94;6184134;28;20701;-42
2022/09/16 14:40:21;;;;;;;3.73;2.57;;;;;;;18.11;61.92;96837.47;6181362;28;20287;-44
2022/09/16 14:43:24;;;;;;;2.47;2.27;;;;;;;18.13;62.60;96839.97;6180733;28;20780;-43
2022/09/16 14:46:26;;;;;;;3.10;2.40;;;;;;;18.10;62.55;96835.81;6179822;28;20275;-42
2022/09/16 14:49:29;;;;;;;4.03;2.57;;;;;;;18.07;62.73;96825.50;6181484;28;20233;-43
2022/09/16 14:52:34;;;;;;;3.00;2.30;;;;;;;18.15;62.98;96832.59;6180271;28;20701;-42
2022/09/16 14:55:39;;;;;;;2.33;2.20;;;;;;;18.39;62.86;96824.16;6181527;28;20256;-42
2022/09/16 14:58:41;;;;;;;2.40;2.20;;;;;;;18.44;61.09;96817.22;6179430;28;20229;-44
2022/09/16 15:01:49;;;;;;;3.13;2.50;;;;;;;18.35;61.22;96817.56;6169215;28;20237;-43
2022/09/16 15:05:30;;;;;;;2.50;2.30;;;;;;;18.18;61.97;96811.66;6232248;28;20240;-45